Time;durP1;ratioP1;P1;durP2;ratioP2;P2;SDS_P1;SDS_P2;PMS_P1;PMS_P2;Temp;Humidity;BMP_temperature;BMP_pressure;BME280_temperature;BME280_humidity;BME280_pressure;Samples;Min_cycle;Max_cycle;Signal;HPM_P1;HPM_P2
2023/12/03 00:02:17;;;;;;;58.85;25.98;;;;;;;;;;4998092;28;20046;-78
2023/12/03 00:04:43;;;;;;;56.70;24.90;;;;;;;;;;4996608;28;20050;-79
2023/12/03 00:07:10;;;;;;;57.60;25.77;;;;;;;;;;4997534;28;20062;-78
2023/12/03 00:09:39;;;;;;;53.88;25.45;;;;;;;;;;4997661;28;20397;-78
2023/12/03 00:12:06;;;;;;;46.13;21.98;;;;;;;;;;4997276;28;20511;-78
2023/12/03 00:14:32;;;;;;;45.33;21.90;;;;;;;;;;4997094;28;20487;-78
2023/12/03 00:16:58;;;;;;;52.22;24.63;;;;;;;;;;4997907;28;20550;-78
2023/12/03 00:19:27;;;;;;;49.70;23.17;;;;;;;;;;4997065;28;20065;-78
2023/12/03 00:21:53;;;;;;;51.17;23.15;;;;;;;;;;4989652;28;20175;-78
2023/12/03 00:24:20;;;;;;;48.10;23.10;;;;;;;;;;4996898;28;20050;-78
2023/12/03 00:26:46;;;;;;;46.33;22.80;;;;;;;;;;4998805;28;20042;-78
2023/12/03 00:29:12;;;;;;;48.42;22.92;;;;;;;;;;4996842;28;20050;-79
2023/12/03 00:31:39;;;;;;;51.97;23.50;;;;;;;;;;4997484;28;20126;-78
2023/12/03 00:34:05;;;;;;;44.25;21.42;;;;;;;;;;4998469;28;20396;-79
2023/12/03 00:36:32;;;;;;;45.15;23.15;;;;;;;;;;4997430;28;20065;-79
2023/12/03 00:38:58;;;;;;;52.35;24.63;;;;;;;;;;4997338;28;20488;-79
2023/12/03 00:41:24;;;;;;;47.95;24.25;;;;;;;;;;4996849;28;20097;-79
2023/12/03 00:43:50;;;;;;;50.45;25.33;;;;;;;;;;5001673;28;20073;-79
2023/12/03 00:46:20;;;;;;;49.60;24.25;;;;;;;;;;5003931;28;20038;-79
2023/12/03 00:48:49;;;;;;;48.08;23.80;;;;;;;;;;4997955;28;20572;-79
2023/12/03 00:51:15;;;;;;;57.55;23.38;;;;;;;;;;5005369;28;20500;-79
2023/12/03 00:53:42;;;;;;;51.10;24.70;;;;;;;;;;4995719;28;20042;-79
2023/12/03 00:56:09;;;;;;;43.55;22.27;;;;;;;;;;5010045;28;20045;-79
2023/12/03 00:58:35;;;;;;;52.80;24.00;;;;;;;;;;4996635;28;20050;-79
2023/12/03 01:01:01;;;;;;;48.38;23.10;;;;;;;;;;5012650;28;20100;-79
2023/12/03 01:03:27;;;;;;;47.28;23.30;;;;;;;;;;5004286;28;20038;-79
2023/12/03 01:05:53;;;;;;;52.58;22.95;;;;;;;;;;5016538;28;20053;-79
2023/12/03 01:08:19;;;;;;;54.60;24.20;;;;;;;;;;4995841;28;20042;-79
2023/12/03 01:10:45;;;;;;;52.38;23.70;;;;;;;;;;4997657;28;20496;-80
2023/12/03 01:13:11;;;;;;;51.80;22.77;;;;;;;;;;5001382;28;21547;-79
2023/12/03 01:15:37;;;;;;;51.00;23.33;;;;;;;;;;4995845;28;20500;-80
2023/12/03 01:18:04;;;;;;;52.38;23.63;;;;;;;;;;4993858;28;20417;-79
2023/12/03 01:20:30;;;;;;;46.58;22.83;;;;;;;;;;4995653;28;20125;-79
2023/12/03 01:22:56;;;;;;;45.65;22.75;;;;;;;;;;4995629;28;20459;-80
2023/12/03 01:25:22;;;;;;;49.03;22.73;;;;;;;;;;4995209;28;20451;-79
2023/12/03 01:27:48;;;;;;;47.75;22.50;;;;;;;;;;4994107;28;20077;-79
2023/12/03 01:30:14;;;;;;;43.08;21.55;;;;;;;;;;4996241;28;20408;-79
2023/12/03 01:32:40;;;;;;;45.85;21.73;;;;;;;;;;4995604;28;20515;-80
2023/12/03 01:35:07;;;;;;;42.33;21.88;;;;;;;;;;4995487;28;20554;-79
2023/12/03 01:37:33;;;;;;;44.65;23.40;;;;;;;;;;4995687;28;20110;-79
2023/12/03 01:39:59;;;;;;;43.75;22.27;;;;;;;;;;4995729;28;20062;-79
2023/12/03 01:42:25;;;;;;;47.65;22.23;;;;;;;;;;4994690;28;20065;-77
2023/12/03 01:44:52;;;;;;;46.30;22.35;;;;;;;;;;4991011;28;20483;-77
2023/12/03 01:47:18;;;;;;;46.13;22.05;;;;;;;;;;4995505;28;20042;-77
2023/12/03 01:49:45;;;;;;;50.00;22.58;;;;;;;;;;4995422;28;20046;-76
2023/12/03 01:52:12;;;;;;;45.75;23.30;;;;;;;;;;4995470;28;20046;-79
2023/12/03 01:54:41;;;;;;;44.45;21.52;;;;;;;;;;4993865;28;20115;-79
2023/12/03 01:57:07;;;;;;;45.42;23.10;;;;;;;;;;4994628;28;20042;-79
2023/12/03 01:59:34;;;;;;;38.40;21.20;;;;;;;;;;4994503;28;20053;-79
2023/12/03 02:02:00;;;;;;;48.67;22.15;;;;;;;;;;4995223;28;20049;-79
2023/12/03 02:04:26;;;;;;;49.47;21.85;;;;;;;;;;4995035;28;20038;-79
2023/12/03 02:06:52;;;;;;;58.42;24.65;;;;;;;;;;4995025;28;20054;-79
2023/12/03 02:09:19;;;;;;;50.80;22.80;;;;;;;;;;4994547;28;20496;-79
2023/12/03 02:11:45;;;;;;;48.38;23.50;;;;;;;;;;4988929;28;20125;-79
2023/12/03 02:14:12;;;;;;;44.03;21.60;;;;;;;;;;4995076;28;20042;-79
2023/12/03 02:16:38;;;;;;;55.13;22.38;;;;;;;;;;4994790;28;20050;-79
2023/12/03 02:19:04;;;;;;;66.35;23.95;;;;;;;;;;4995036;28;20054;-79
2023/12/03 02:21:30;;;;;;;59.95;22.83;;;;;;;;;;4985685;28;20123;-79
2023/12/03 02:23:56;;;;;;;142.00;24.60;;;;;;;;;;4993121;28;20042;-79
2023/12/03 02:26:22;;;;;;;82.57;20.42;;;;;;;;;;4994864;28;20047;-79
2023/12/03 02:28:48;;;;;;;121.90;21.45;;;;;;;;;;4994731;28;20054;-79
2023/12/03 02:31:15;;;;;;;164.80;23.95;;;;;;;;;;4994764;28;20559;-78
2023/12/03 02:33:47;;;;;;;90.93;19.80;;;;;;;;;;4994670;28;20054;-78
2023/12/03 02:36:13;;;;;;;143.13;22.60;;;;;;;;;;4993862;28;20045;-79
2023/12/03 02:38:39;;;;;;;137.65;21.92;;;;;;;;;;4992801;28;20476;-79
2023/12/03 02:41:08;;;;;;;135.43;23.05;;;;;;;;;;4993283;28;20053;-79
2023/12/03 02:43:34;;;;;;;75.88;21.45;;;;;;;;;;4983729;28;20061;-79
2023/12/03 02:46:01;;;;;;;193.10;26.83;;;;;;;;;;4994603;28;20097;-79
2023/12/03 02:48:27;;;;;;;116.30;25.30;;;;;;;;;;4994443;28;20044;-78
2023/12/03 02:50:53;;;;;;;158.82;25.08;;;;;;;;;;4993631;28;20046;-79
2023/12/03 02:53:19;;;;;;;128.55;25.52;;;;;;;;;;4994431;28;20042;-79
2023/12/03 02:55:45;;;;;;;148.88;25.98;;;;;;;;;;4994293;28;20046;-79
2023/12/03 02:58:13;;;;;;;151.05;26.80;;;;;;;;;;4993353;28;20407;-79
2023/12/03 03:00:39;;;;;;;122.40;26.90;;;;;;;;;;4991473;28;20117;-79
2023/12/03 03:03:08;;;;;;;126.18;28.23;;;;;;;;;;4993202;28;20046;-79
2023/12/03 03:05:34;;;;;;;162.75;31.77;;;;;;;;;;4991294;28;20047;-79
2023/12/03 03:08:00;;;;;;;94.68;25.05;;;;;;;;;;4993788;28;20050;-79
2023/12/03 03:10:26;;;;;;;145.75;28.73;;;;;;;;;;4994275;28;20046;-79
2023/12/03 03:12:52;;;;;;;120.57;26.83;;;;;;;;;;4992584;28;20045;-79
2023/12/03 03:15:19;;;;;;;67.47;24.38;;;;;;;;;;4994210;28;20101;-79
2023/12/03 03:17:47;;;;;;;74.57;25.38;;;;;;;;;;4993409;28;20050;-79
2023/12/03 03:20:13;;;;;;;127.93;28.45;;;;;;;;;;4993637;28;20051;-79
2023/12/03 03:22:39;;;;;;;72.70;24.80;;;;;;;;;;4993571;28;20052;-79
2023/12/03 03:25:05;;;;;;;79.50;25.52;;;;;;;;;;4995677;28;20112;-79
2023/12/03 03:27:31;;;;;;;124.25;27.58;;;;;;;;;;4998432;28;20050;-78
2023/12/03 03:29:57;;;;;;;124.72;26.77;;;;;;;;;;4996121;28;20418;-79
2023/12/03 03:32:23;;;;;;;130.15;27.05;;;;;;;;;;4992367;28;20057;-79
2023/12/03 03:34:49;;;;;;;130.90;27.60;;;;;;;;;;4993076;28;20064;-79
2023/12/03 03:37:16;;;;;;;234.90;32.25;;;;;;;;;;4994201;28;20101;-79
2023/12/03 03:39:42;;;;;;;134.05;26.67;;;;;;;;;;4993157;28;20054;-79
2023/12/03 03:42:08;;;;;;;134.57;28.33;;;;;;;;;;4993967;28;20038;-79
2023/12/03 03:44:34;;;;;;;144.68;27.20;;;;;;;;;;4996253;28;20038;-79
2023/12/03 03:47:00;;;;;;;222.38;32.80;;;;;;;;;;5007407;28;20046;-79
2023/12/03 03:49:26;;;;;;;112.55;27.67;;;;;;;;;;4993871;28;20051;-79
2023/12/03 03:51:52;;;;;;;202.25;32.28;;;;;;;;;;4993511;28;20042;-79
2023/12/03 03:54:18;;;;;;;109.65;27.98;;;;;;;;;;4992163;28;20054;-79
2023/12/03 03:56:47;;;;;;;274.38;37.50;;;;;;;;;;5003610;28;20042;-79
2023/12/03 03:59:13;;;;;;;149.95;31.60;;;;;;;;;;4997148;28;20038;-79
2023/12/03 04:01:45;;;;;;;242.13;36.78;;;;;;;;;;4992609;28;20054;-79
2023/12/03 04:04:12;;;;;;;216.80;36.80;;;;;;;;;;4992131;28;20484;-79
2023/12/03 04:06:39;;;;;;;158.15;34.08;;;;;;;;;;4991780;28;20575;-79
2023/12/03 04:09:06;;;;;;;93.40;28.63;;;;;;;;;;4993910;28;20078;-78
2023/12/03 04:11:32;;;;;;;76.70;29.17;;;;;;;;;;4993469;28;20050;-79
2023/12/03 04:13:58;;;;;;;103.28;29.77;;;;;;;;;;4998213;28;20381;-79
2023/12/03 04:16:24;;;;;;;105.55;32.15;;;;;;;;;;4994271;28;20419;-79
2023/12/03 04:18:50;;;;;;;113.07;32.25;;;;;;;;;;5007046;28;20047;-79
2023/12/03 04:21:16;;;;;;;146.23;33.28;;;;;;;;;;4996587;28;20149;-79
2023/12/03 04:23:43;;;;;;;158.43;34.15;;;;;;;;;;4991338;28;20046;-79
2023/12/03 04:26:09;;;;;;;111.18;33.30;;;;;;;;;;5002108;28;20042;-79
2023/12/03 04:28:35;;;;;;;198.32;44.85;;;;;;;;;;4997101;28;20061;-79
2023/12/03 04:31:01;;;;;;;106.95;33.53;;;;;;;;;;4995802;28;20516;-79
2023/12/03 04:33:27;;;;;;;99.90;34.75;;;;;;;;;;4997105;28;20038;-79
2023/12/03 04:35:53;;;;;;;264.00;40.72;;;;;;;;;;5014306;28;20042;-79
2023/12/03 04:38:19;;;;;;;345.05;47.35;;;;;;;;;;4992665;28;20047;-79
2023/12/03 04:40:45;;;;;;;225.65;41.45;;;;;;;;;;5005727;28;20061;-79
2023/12/03 04:43:11;;;;;;;185.38;38.53;;;;;;;;;;4997994;28;20054;-79
2023/12/03 04:45:37;;;;;;;176.75;37.90;;;;;;;;;;4998825;28;20038;-79
2023/12/03 04:48:05;;;;;;;215.38;47.80;;;;;;;;;;4995257;28;20053;-79
2023/12/03 04:50:31;;;;;;;169.82;35.55;;;;;;;;;;4996362;28;20117;-78
2023/12/03 04:52:57;;;;;;;110.75;32.28;;;;;;;;;;4995351;28;20047;-79
2023/12/03 04:55:23;;;;;;;219.68;37.28;;;;;;;;;;4995293;28;20050;-79
2023/12/03 04:57:49;;;;;;;213.35;37.78;;;;;;;;;;4995760;28;20054;-79
2023/12/03 05:00:15;;;;;;;196.35;37.03;;;;;;;;;;4995284;28;20137;-79
2023/12/03 05:02:43;;;;;;;111.50;31.98;;;;;;;;;;5001059;28;20399;-79
2023/12/03 05:05:09;;;;;;;133.98;30.98;;;;;;;;;;4991830;28;20049;-79
2023/12/03 05:07:35;;;;;;;136.52;30.67;;;;;;;;;;4996084;28;20062;-79
2023/12/03 05:10:01;;;;;;;132.80;29.48;;;;;;;;;;4995549;28;20050;-79
2023/12/03 05:12:27;;;;;;;108.15;29.27;;;;;;;;;;4995302;28;20042;-79
2023/12/03 05:14:53;;;;;;;121.18;29.45;;;;;;;;;;4994998;28;20125;-79
2023/12/03 05:17:19;;;;;;;158.40;30.67;;;;;;;;;;4995313;28;20035;-79
2023/12/03 05:19:45;;;;;;;97.78;27.52;;;;;;;;;;4995001;28;20053;-79
2023/12/03 05:22:11;;;;;;;99.55;26.52;;;;;;;;;;4998665;28;20535;-79
2023/12/03 05:24:37;;;;;;;105.95;24.60;;;;;;;;;;4993069;28;20049;-79
2023/12/03 05:27:04;;;;;;;88.32;25.60;;;;;;;;;;4995741;28;20050;-79
2023/12/03 05:29:30;;;;;;;102.72;25.73;;;;;;;;;;4995925;28;20125;-79
2023/12/03 05:31:56;;;;;;;77.00;23.73;;;;;;;;;;4995197;28;20105;-79
2023/12/03 05:34:22;;;;;;;73.10;24.02;;;;;;;;;;5001452;28;20045;-79
2023/12/03 05:36:48;;;;;;;88.22;25.38;;;;;;;;;;5011472;28;20042;-79
2023/12/03 05:39:15;;;;;;;57.47;22.75;;;;;;;;;;4978266;28;20125;-79
2023/12/03 05:41:41;;;;;;;52.78;22.52;;;;;;;;;;4995179;28;20046;-79
2023/12/03 05:44:08;;;;;;;107.28;26.15;;;;;;;;;;5000297;28;20045;-79
2023/12/03 05:46:40;;;;;;;73.68;24.75;;;;;;;;;;4996156;28;20069;-79
2023/12/03 05:49:08;;;;;;;97.82;26.73;;;;;;;;;;4998026;28;20050;-79
2023/12/03 05:51:34;;;;;;;62.58;23.50;;;;;;;;;;4992160;28;20049;-79
2023/12/03 05:54:00;;;;;;;92.82;26.23;;;;;;;;;;5003355;28;20443;-79
2023/12/03 05:56:26;;;;;;;72.40;25.77;;;;;;;;;;4996909;28;20447;-79
2023/12/03 05:58:52;;;;;;;79.20;25.45;;;;;;;;;;4994272;28;20046;-79
2023/12/03 06:01:25;;;;;;;103.07;26.65;;;;;;;;;;4996153;28;20042;-79
2023/12/03 06:03:51;;;;;;;101.43;27.65;;;;;;;;;;4992531;28;20046;-79
2023/12/03 06:06:17;;;;;;;164.82;31.50;;;;;;;;;;4999434;28;20085;-79
2023/12/03 06:08:43;;;;;;;124.07;29.35;;;;;;;;;;4997815;28;20058;-79
2023/12/03 06:11:09;;;;;;;70.25;24.20;;;;;;;;;;4996532;28;20038;-79
2023/12/03 06:13:36;;;;;;;91.90;26.52;;;;;;;;;;4997703;28;20039;-79
2023/12/03 06:16:02;;;;;;;72.97;24.40;;;;;;;;;;5008371;28;20088;-79
2023/12/03 06:18:29;;;;;;;60.83;22.95;;;;;;;;;;5007284;28;20046;-79
2023/12/03 06:20:55;;;;;;;72.10;24.92;;;;;;;;;;4994071;28;20043;-79
2023/12/03 06:23:21;;;;;;;77.53;24.17;;;;;;;;;;4995518;28;20053;-79
2023/12/03 06:25:47;;;;;;;89.97;25.77;;;;;;;;;;4997235;28;20042;-79
2023/12/03 06:28:13;;;;;;;72.20;24.42;;;;;;;;;;4994234;28;20484;-79
2023/12/03 06:30:39;;;;;;;92.45;25.13;;;;;;;;;;4994952;28;20050;-79
2023/12/03 06:33:05;;;;;;;84.00;24.85;;;;;;;;;;4994278;28;20050;-79
2023/12/03 06:35:31;;;;;;;64.28;22.10;;;;;;;;;;5004100;28;20042;-79
2023/12/03 06:38:00;;;;;;;88.63;24.73;;;;;;;;;;4996745;28;20509;-79
2023/12/03 06:40:26;;;;;;;96.18;24.77;;;;;;;;;;4999923;28;20042;-79
2023/12/03 06:42:53;;;;;;;86.90;23.98;;;;;;;;;;4993737;28;20064;-79
2023/12/03 06:45:19;;;;;;;76.10;23.15;;;;;;;;;;5001436;28;20042;-79
2023/12/03 06:47:45;;;;;;;73.72;22.88;;;;;;;;;;5009981;28;20053;-79
2023/12/03 06:50:14;;;;;;;75.35;23.17;;;;;;;;;;4992660;28;20117;-79
2023/12/03 06:52:40;;;;;;;92.22;24.70;;;;;;;;;;4993485;28;20038;-79
2023/12/03 06:55:09;;;;;;;87.95;24.63;;;;;;;;;;4992048;28;20104;-79
2023/12/03 06:57:35;;;;;;;88.00;23.70;;;;;;;;;;5011252;28;20049;-79
2023/12/03 07:00:01;;;;;;;77.57;23.65;;;;;;;;;;5003983;28;20050;-79
2023/12/03 07:02:27;;;;;;;70.53;22.63;;;;;;;;;;4994918;28;20082;-79
2023/12/03 07:04:53;;;;;;;74.07;23.80;;;;;;;;;;4992840;28;20050;-79
2023/12/03 07:07:20;;;;;;;79.57;23.05;;;;;;;;;;4989624;28;20107;-79
2023/12/03 07:09:46;;;;;;;69.10;22.27;;;;;;;;;;4997727;28;20057;-79
2023/12/03 07:12:12;;;;;;;61.60;22.23;;;;;;;;;;5009252;28;20042;-79
2023/12/03 07:14:38;;;;;;;79.47;24.48;;;;;;;;;;4995669;28;20475;-79
2023/12/03 07:17:04;;;;;;;81.20;24.27;;;;;;;;;;4994110;28;20198;-78
2023/12/03 07:19:43;;;;;;;87.50;24.77;;;;;;;;;;4992533;28;20048;-79
2023/12/03 07:22:10;;;;;;;79.63;25.33;;;;;;;;;;4993264;28;20126;-79
2023/12/03 07:24:36;;;;;;;79.05;23.58;;;;;;;;;;4976809;28;20401;-79
2023/12/03 07:27:02;;;;;;;85.45;25.38;;;;;;;;;;4992253;28;20077;-79
2023/12/03 07:29:28;;;;;;;85.10;26.27;;;;;;;;;;4991726;28;20121;-79
2023/12/03 07:31:54;;;;;;;74.82;24.65;;;;;;;;;;4992314;28;20046;-78
2023/12/03 07:34:20;;;;;;;70.32;23.10;;;;;;;;;;4995925;28;20042;-79
2023/12/03 07:36:46;;;;;;;78.57;24.73;;;;;;;;;;4979504;28;20042;-79
2023/12/03 07:39:12;;;;;;;74.68;24.15;;;;;;;;;;4991974;28;20058;-78
2023/12/03 07:41:38;;;;;;;72.20;23.52;;;;;;;;;;4991242;28;20038;-79
2023/12/03 07:44:04;;;;;;;80.80;25.08;;;;;;;;;;4996729;28;20050;-79
2023/12/03 07:46:32;;;;;;;76.75;24.88;;;;;;;;;;4991995;28;20100;-78
2023/12/03 07:48:58;;;;;;;77.43;23.58;;;;;;;;;;4990573;28;20137;-79
2023/12/03 07:51:25;;;;;;;82.65;25.70;;;;;;;;;;4991047;28;20077;-79
2023/12/03 07:53:51;;;;;;;80.82;24.95;;;;;;;;;;4994383;28;20128;-79
2023/12/03 07:56:17;;;;;;;75.32;23.98;;;;;;;;;;5005521;28;20382;-79
2023/12/03 07:58:43;;;;;;;79.40;24.25;;;;;;;;;;4993466;28;20050;-78
2023/12/03 08:01:10;;;;;;;66.43;22.52;;;;;;;;;;4992922;28;20050;-78
2023/12/03 08:03:36;;;;;;;68.47;23.02;;;;;;;;;;4999782;28;20047;-78
2023/12/03 08:06:02;;;;;;;79.72;25.02;;;;;;;;;;4993167;28;20051;-78
2023/12/03 08:08:28;;;;;;;72.85;24.42;;;;;;;;;;4996143;28;20076;-78
2023/12/03 08:10:54;;;;;;;76.15;23.52;;;;;;;;;;4996162;28;20042;-78
2023/12/03 08:13:20;;;;;;;67.95;22.90;;;;;;;;;;4994922;28;20120;-78
2023/12/03 08:15:46;;;;;;;75.43;23.83;;;;;;;;;;4997868;28;20038;-78
2023/12/03 08:18:12;;;;;;;62.90;21.50;;;;;;;;;;4991471;28;20050;-78
2023/12/03 08:20:38;;;;;;;64.95;23.60;;;;;;;;;;4993757;28;20126;-78
2023/12/03 08:23:04;;;;;;;57.22;20.90;;;;;;;;;;4995969;28;20071;-78
2023/12/03 08:25:30;;;;;;;68.45;22.08;;;;;;;;;;4991555;28;20039;-78
2023/12/03 08:27:56;;;;;;;62.60;22.10;;;;;;;;;;4984421;28;20049;-78
2023/12/03 08:30:23;;;;;;;58.95;21.00;;;;;;;;;;4994452;28;20046;-78
2023/12/03 08:32:49;;;;;;;64.60;22.08;;;;;;;;;;4995599;28;20054;-78
2023/12/03 08:35:15;;;;;;;62.53;21.30;;;;;;;;;;4995785;28;20627;-78
2023/12/03 08:37:41;;;;;;;56.30;20.95;;;;;;;;;;4996145;28;20046;-78
2023/12/03 08:40:09;;;;;;;63.25;20.65;;;;;;;;;;4994529;28;20054;-78
2023/12/03 08:42:35;;;;;;;66.75;21.48;;;;;;;;;;4994495;28;20046;-78
2023/12/03 08:45:02;;;;;;;60.75;20.75;;;;;;;;;;4990318;28;20043;-78
2023/12/03 08:47:29;;;;;;;65.97;21.40;;;;;;;;;;4985610;28;20043;-78
2023/12/03 08:49:55;;;;;;;65.97;21.40;;;;;;;;;;4995905;28;20046;-78
2023/12/03 08:52:21;;;;;;;68.28;21.50;;;;;;;;;;4993507;28;20108;-78
2023/12/03 08:54:47;;;;;;;53.85;20.55;;;;;;;;;;4988805;28;20058;-78
2023/12/03 08:57:13;;;;;;;62.88;21.95;;;;;;;;;;4992578;28;20054;-78
2023/12/03 08:59:39;;;;;;;57.97;20.83;;;;;;;;;;4994173;28;20056;-78
2023/12/03 09:02:05;;;;;;;62.13;22.20;;;;;;;;;;4993676;28;20504;-78
2023/12/03 09:04:31;;;;;;;65.80;23.02;;;;;;;;;;4994748;28;20054;-78
2023/12/03 09:06:58;;;;;;;58.20;21.95;;;;;;;;;;4995333;28;20065;-78
2023/12/03 09:09:24;;;;;;;65.45;22.58;;;;;;;;;;4995395;28;20074;-78
2023/12/03 09:11:50;;;;;;;60.65;22.60;;;;;;;;;;4995388;28;20492;-78
2023/12/03 09:14:16;;;;;;;59.90;22.05;;;;;;;;;;4994323;28;20459;-78
2023/12/03 09:16:42;;;;;;;59.42;22.27;;;;;;;;;;4993339;28;20043;-78
2023/12/03 09:19:08;;;;;;;61.72;21.75;;;;;;;;;;4994793;28;20039;-78
2023/12/03 09:21:34;;;;;;;52.92;21.80;;;;;;;;;;4994648;28;20049;-78
2023/12/03 09:24:00;;;;;;;55.22;20.52;;;;;;;;;;4994141;28;20051;-78
2023/12/03 09:26:26;;;;;;;63.05;23.45;;;;;;;;;;4994771;28;20403;-78
2023/12/03 09:28:52;;;;;;;61.47;23.92;;;;;;;;;;4992732;28;20043;-78
2023/12/03 09:31:18;;;;;;;60.20;23.77;;;;;;;;;;4995368;28;20046;-78
2023/12/03 09:33:45;;;;;;;53.25;21.70;;;;;;;;;;4994733;28;20055;-78
2023/12/03 09:36:13;;;;;;;62.75;25.08;;;;;;;;;;4992625;28;20069;-78
2023/12/03 09:38:40;;;;;;;63.63;24.30;;;;;;;;;;4994281;28;20065;-78
2023/12/03 09:41:09;;;;;;;64.82;26.00;;;;;;;;;;4995157;28;20464;-78
2023/12/03 09:43:38;;;;;;;64.03;24.65;;;;;;;;;;4993639;28;20046;-78
2023/12/03 09:46:06;;;;;;;64.50;26.33;;;;;;;;;;4993403;28;20482;-79
2023/12/03 09:48:34;;;;;;;66.13;26.13;;;;;;;;;;4994909;28;20042;-79
2023/12/03 09:51:00;;;;;;;57.60;24.92;;;;;;;;;;4994821;28;20050;-79
2023/12/03 09:53:26;;;;;;;63.33;26.15;;;;;;;;;;4994533;28;20472;-78
2023/12/03 09:55:53;;;;;;;66.07;27.13;;;;;;;;;;4994325;28;20062;-78
2023/12/03 09:58:19;;;;;;;65.72;27.92;;;;;;;;;;4996811;28;20046;-78
2023/12/03 10:00:45;;;;;;;56.63;27.40;;;;;;;;;;4995113;28;20081;-78
2023/12/03 10:03:11;;;;;;;61.80;28.10;;;;;;;;;;4992519;28;20526;-78
2023/12/03 10:05:37;;;;;;;59.28;28.15;;;;;;;;;;4993838;28;20038;-79
2023/12/03 10:08:06;;;;;;;61.85;29.80;;;;;;;;;;4992555;28;20050;-78
2023/12/03 10:10:35;;;;;;;54.85;27.85;;;;;;;;;;4992810;28;20046;-78
2023/12/03 10:13:01;;;;;;;59.75;30.00;;;;;;;;;;4992747;28;20090;-79
2023/12/03 10:15:27;;;;;;;55.45;30.00;;;;;;;;;;4992829;28;20134;-78
2023/12/03 10:17:53;;;;;;;56.25;30.20;;;;;;;;;;4994145;28;20459;-79
2023/12/03 10:20:24;;;;;;;63.05;32.00;;;;;;;;;;4993791;28;20054;-79
2023/12/03 10:22:51;;;;;;;54.30;31.73;;;;;;;;;;4993653;28;20411;-79
2023/12/03 10:25:29;;;;;;;53.65;31.17;;;;;;;;;;4993528;28;20043;-79
2023/12/03 10:27:56;;;;;;;51.08;31.77;;;;;;;;;;4993651;28;20052;-79
2023/12/03 10:30:22;;;;;;;48.70;31.80;;;;;;;;;;4992546;28;20105;-79
2023/12/03 10:32:48;;;;;;;48.92;30.52;;;;;;;;;;4992441;28;20117;-79
2023/12/03 10:35:14;;;;;;;51.40;32.22;;;;;;;;;;4992574;28;20105;-79
2023/12/03 10:37:41;;;;;;;49.33;31.88;;;;;;;;;;4991055;28;20476;-79
2023/12/03 10:40:07;;;;;;;46.00;31.20;;;;;;;;;;4992130;28;20050;-79
2023/12/03 10:42:40;;;;;;;47.45;31.33;;;;;;;;;;4989812;28;20056;-78
2023/12/03 10:45:13;;;;;;;46.35;30.63;;;;;;;;;;4993132;28;20105;-79
2023/12/03 10:47:39;;;;;;;47.50;31.05;;;;;;;;;;4993388;28;20054;-78
2023/12/03 10:50:06;;;;;;;45.72;31.20;;;;;;;;;;4993428;28;20050;-79
2023/12/03 10:52:32;;;;;;;47.92;31.33;;;;;;;;;;4992889;28;20042;-79
2023/12/03 10:54:59;;;;;;;47.03;31.45;;;;;;;;;;4992838;28;20050;-79
2023/12/03 10:57:31;;;;;;;50.10;32.40;;;;;;;;;;4989088;28;20049;-77
2023/12/03 11:00:02;;;;;;;49.95;31.52;;;;;;;;;;4991908;28;20401;-76
2023/12/03 11:02:30;;;;;;;48.47;31.13;;;;;;;;;;4991850;28;20129;-76
2023/12/03 11:05:01;;;;;;;49.53;31.77;;;;;;;;;;4992689;28;20061;-78
2023/12/03 11:07:30;;;;;;;47.20;30.85;;;;;;;;;;4992827;28;20077;-78
2023/12/03 11:09:57;;;;;;;46.05;30.27;;;;;;;;;;4998874;28;20463;-77
2023/12/03 11:12:24;;;;;;;45.70;30.98;;;;;;;;;;4998805;28;20124;-76
2023/12/03 11:14:51;;;;;;;47.55;33.38;;;;;;;;;;4990901;28;20042;-76
2023/12/03 11:17:28;;;;;;;47.80;30.75;;;;;;;;;;4992837;28;20069;-78
2023/12/03 11:19:56;;;;;;;47.90;33.65;;;;;;;;;;4990835;28;20133;-77
2023/12/03 11:22:37;;;;;;;50.45;32.47;;;;;;;;;;4991060;28;20121;-77
2023/12/03 11:25:06;;;;;;;48.30;32.53;;;;;;;;;;4992816;28;20507;-77
2023/12/03 11:27:32;;;;;;;48.88;33.33;;;;;;;;;;4995492;28;20050;-77
2023/12/03 11:30:04;;;;;;;51.63;33.55;;;;;;;;;;5000421;28;20046;-77
2023/12/03 11:32:30;;;;;;;;;;;;;;;;;;4999739;28;20480;-77
2023/12/03 11:34:57;;;;;;;51.45;32.38;;;;;;;;;;4999461;28;19933;-77
2023/12/03 11:37:25;;;;;;;46.03;32.13;;;;;;;;;;4999758;28;20137;-77
2023/12/03 11:39:51;;;;;;;47.08;31.65;;;;;;;;;;4999453;28;20074;-77
2023/12/03 11:42:18;;;;;;;46.03;30.55;;;;;;;;;;4999789;28;20439;-77
2023/12/03 11:44:45;;;;;;;52.65;34.17;;;;;;;;;;4998542;28;20200;-78
2023/12/03 11:47:13;;;;;;;56.38;41.67;;;;;;;;;;4998908;28;20089;-77
2023/12/03 11:49:42;;;;;;;58.67;44.50;;;;;;;;;;5004102;28;20046;-77
2023/12/03 11:52:09;;;;;;;44.00;29.52;;;;;;;;;;5002639;28;20133;-77
2023/12/03 11:54:35;;;;;;;40.72;27.25;;;;;;;;;;4999895;28;20590;-77
2023/12/03 11:57:01;;;;;;;40.67;26.25;;;;;;;;;;4999455;28;20054;-77
2023/12/03 11:59:27;;;;;;;38.22;24.85;;;;;;;;;;4997354;28;20361;-77
2023/12/03 12:01:53;;;;;;;42.40;26.92;;;;;;;;;;4998367;28;20078;-77
2023/12/03 12:04:23;;;;;;;38.70;25.65;;;;;;;;;;5002050;28;20065;-77
2023/12/03 12:06:50;;;;;;;37.67;24.80;;;;;;;;;;5000352;28;20057;-77
2023/12/03 12:09:22;;;;;;;37.08;25.20;;;;;;;;;;4999308;28;20407;-77
2023/12/03 12:11:51;;;;;;;36.78;24.00;;;;;;;;;;4998397;28;20053;-77
2023/12/03 12:14:18;;;;;;;36.75;23.17;;;;;;;;;;4998317;28;20053;-77
2023/12/03 12:16:47;;;;;;;35.85;22.60;;;;;;;;;;5000956;28;20038;-77
2023/12/03 12:19:14;;;;;;;41.58;25.90;;;;;;;;;;4998804;28;20412;-77
2023/12/03 12:21:53;;;;;;;37.28;24.35;;;;;;;;;;4998969;28;20049;-77
2023/12/03 12:24:19;;;;;;;37.05;24.65;;;;;;;;;;4984525;28;20061;-77
2023/12/03 12:26:46;;;;;;;39.75;25.15;;;;;;;;;;4998739;28;20543;-77
2023/12/03 12:29:12;;;;;;;43.38;25.83;;;;;;;;;;4999111;28;20046;-77
2023/12/03 12:31:39;;;;;;;44.45;27.33;;;;;;;;;;4998875;28;20050;-77
2023/12/03 12:34:08;;;;;;;40.42;25.17;;;;;;;;;;4999049;28;20262;-77
2023/12/03 12:36:34;;;;;;;43.17;27.33;;;;;;;;;;4996691;28;20046;-77
2023/12/03 12:39:00;;;;;;;44.55;27.63;;;;;;;;;;4994716;28;20051;-77
2023/12/03 12:41:36;;;;;;;45.45;29.00;;;;;;;;;;4995689;28;20058;-77
2023/12/03 12:44:03;;;;;;;45.60;29.10;;;;;;;;;;4995217;28;20467;-77
2023/12/03 12:46:29;;;;;;;50.88;30.67;;;;;;;;;;4995118;28;20046;-77
2023/12/03 12:49:15;;;;;;;50.47;32.42;;;;;;;;;;4993641;28;20388;-78
2023/12/03 12:51:41;;;;;;;52.35;32.22;;;;;;;;;;4990182;28;20137;-77
2023/12/03 12:54:07;;;;;;;47.78;29.23;;;;;;;;;;4993106;28;20057;-77
2023/12/03 12:56:34;;;;;;;49.47;30.15;;;;;;;;;;4986888;28;20043;-77
2023/12/03 12:59:00;;;;;;;49.20;29.80;;;;;;;;;;4995281;28;20039;-77
2023/12/03 13:01:28;;;;;;;52.63;31.40;;;;;;;;;;4992526;28;20507;-77
2023/12/03 13:03:54;;;;;;;49.75;29.95;;;;;;;;;;4994604;28;20046;-77
2023/12/03 13:06:20;;;;;;;50.92;31.35;;;;;;;;;;4994602;28;20049;-77
2023/12/03 13:08:47;;;;;;;50.72;30.70;;;;;;;;;;4995073;28;20053;-77
2023/12/03 13:11:13;;;;;;;50.78;29.75;;;;;;;;;;4994840;28;20129;-77
2023/12/03 13:13:39;;;;;;;51.95;30.80;;;;;;;;;;4993263;28;20496;-77
2023/12/03 13:16:06;;;;;;;48.05;30.55;;;;;;;;;;4995694;28;20396;-77
2023/12/03 13:18:32;;;;;;;47.78;29.38;;;;;;;;;;4995235;28;20046;-78
2023/12/03 13:20:58;;;;;;;47.60;28.23;;;;;;;;;;4996012;28;20503;-78
2023/12/03 13:23:24;;;;;;;45.42;27.77;;;;;;;;;;4995304;28;20081;-78
2023/12/03 13:25:50;;;;;;;47.25;27.00;;;;;;;;;;4995546;28;20042;-78
2023/12/03 13:28:17;;;;;;;43.40;27.00;;;;;;;;;;4994900;28;20121;-79
2023/12/03 13:30:43;;;;;;;44.88;26.67;;;;;;;;;;4995686;28;20442;-78
2023/12/03 13:33:09;;;;;;;43.70;26.10;;;;;;;;;;4994711;28;20093;-78
2023/12/03 13:35:35;;;;;;;47.33;26.50;;;;;;;;;;4995067;28;20500;-78
2023/12/03 13:38:01;;;;;;;44.72;26.42;;;;;;;;;;4993921;28;20042;-77
2023/12/03 13:40:27;;;;;;;41.10;25.52;;;;;;;;;;4999148;28;20317;-78
2023/12/03 13:42:54;;;;;;;43.78;25.92;;;;;;;;;;5005866;28;20411;-78
2023/12/03 13:45:20;;;;;;;41.50;25.30;;;;;;;;;;5002234;28;20037;-78
2023/12/03 13:47:46;;;;;;;43.70;24.33;;;;;;;;;;4994137;28;20392;-78
2023/12/03 13:50:12;;;;;;;43.63;25.67;;;;;;;;;;4994975;28;20463;-78
2023/12/03 13:52:38;;;;;;;42.50;25.13;;;;;;;;;;4994873;28;20061;-78
2023/12/03 13:55:04;;;;;;;42.90;24.80;;;;;;;;;;4995357;28;20058;-78
2023/12/03 13:57:31;;;;;;;42.17;25.10;;;;;;;;;;4996187;28;20048;-78
2023/12/03 13:59:57;;;;;;;42.78;24.50;;;;;;;;;;4994087;28;20077;-78
2023/12/03 14:02:25;;;;;;;43.20;24.13;;;;;;;;;;4994650;28;20050;-78
2023/12/03 14:04:51;;;;;;;38.90;22.17;;;;;;;;;;4997900;28;20046;-78
2023/12/03 14:07:17;;;;;;;40.20;23.92;;;;;;;;;;5003139;28;20104;-79
2023/12/03 14:09:43;;;;;;;41.38;23.05;;;;;;;;;;4995020;28;20046;-79
2023/12/03 14:12:09;;;;;;;40.03;23.40;;;;;;;;;;4996870;28;20042;-78
2023/12/03 14:14:36;;;;;;;38.47;22.95;;;;;;;;;;4992184;28;20058;-78